createdAt,value
2023-03-03T00:01:41.078Z,10.82
2023-03-03T00:04:09.433Z,9.98
2023-03-03T00:06:37.738Z,10.43
2023-03-03T00:09:06.110Z,10.52
2023-03-03T00:11:34.453Z,9.07
2023-03-03T00:14:02.765Z,11.45
2023-03-03T00:16:36.629Z,10.95
2023-03-03T00:19:16.446Z,10.73
2023-03-03T00:21:47.646Z,11.65
2023-03-03T00:24:22.904Z,11.68
2023-03-03T00:26:52.941Z,9.88
2023-03-03T00:29:31.367Z,11.48
2023-03-03T00:32:23.868Z,11.30
2023-03-03T00:34:55.621Z,10.38
2023-03-03T00:37:33.414Z,10.27
2023-03-03T00:40:21.085Z,10.63
2023-03-03T00:42:53.732Z,10.68
2023-03-03T00:45:36.415Z,10.23
2023-03-03T00:48:25.204Z,9.73
2023-03-03T00:50:56.184Z,9.57
2023-03-03T00:53:26.289Z,10.82
2023-03-03T00:55:55.300Z,8.82
2023-03-03T00:58:24.788Z,9.35
2023-03-03T01:00:56.701Z,10.40
2023-03-03T01:03:27.630Z,9.48
2023-03-03T01:05:57.380Z,10.10
2023-03-03T01:08:26.016Z,10.00
2023-03-03T01:10:57.656Z,8.75
2023-03-03T01:13:30.206Z,8.55
2023-03-03T01:16:00.653Z,9.93
2023-03-03T01:18:29.483Z,10.10
2023-03-03T01:20:59.419Z,9.02
2023-03-03T01:23:27.718Z,9.15
2023-03-03T01:25:56.082Z,9.93
2023-03-03T01:28:24.353Z,9.52
2023-03-03T01:30:52.827Z,8.77
2023-03-03T01:33:21.189Z,9.35
2023-03-03T01:35:49.732Z,9.10
2023-03-03T01:38:19.357Z,10.55
2023-03-03T01:40:55.229Z,9.32
2023-03-03T01:43:24.051Z,9.52
2023-03-03T01:46:38.273Z,8.98
2023-03-03T01:49:14.624Z,9.30
2023-03-03T01:51:50.424Z,9.32
2023-03-03T01:54:26.454Z,9.38
2023-03-03T01:57:01.423Z,9.07
2023-03-03T01:59:33.499Z,9.45
2023-03-03T02:02:01.904Z,9.07
2023-03-03T02:04:30.754Z,8.90
2023-03-03T02:07:04.423Z,9.15
2023-03-03T02:09:42.799Z,8.82
2023-03-03T02:12:15.476Z,9.32
2023-03-03T02:14:43.869Z,9.32
2023-03-03T02:17:12.690Z,9.18
2023-03-03T02:19:50.728Z,9.95
2023-03-03T02:22:36.007Z,9.15
2023-03-03T02:25:12.925Z,9.23
2023-03-03T02:27:42.631Z,8.82
2023-03-03T02:30:16.686Z,8.60
2023-03-03T02:32:44.943Z,7.97
2023-03-03T02:35:34.392Z,8.50
2023-03-03T02:38:18.882Z,9.07
2023-03-03T02:41:00.995Z,9.05
2023-03-03T02:43:38.161Z,8.90
2023-03-03T02:46:06.634Z,8.00
2023-03-03T02:48:35.034Z,8.73
2023-03-03T02:51:03.339Z,8.45
2023-03-03T02:53:31.634Z,8.73
2023-03-03T02:55:59.915Z,8.55
2023-03-03T02:58:28.199Z,8.15
2023-03-03T03:00:57.943Z,8.38
2023-03-03T03:03:26.432Z,9.30
2023-03-03T03:05:54.848Z,9.15
2023-03-03T03:08:23.229Z,8.55
2023-03-03T03:10:51.747Z,9.13
2023-03-03T03:13:20.060Z,7.85
2023-03-03T03:15:51.154Z,8.93
2023-03-03T03:20:48.870Z,8.13
2023-03-03T03:23:17.232Z,9.02
2023-03-03T03:25:46.582Z,8.13
2023-03-03T03:28:16.580Z,8.35
2023-03-03T03:30:45.922Z,8.38
2023-03-03T03:33:14.423Z,7.68
2023-03-03T03:35:45.724Z,9.82
2023-03-03T03:38:15.194Z,8.77
2023-03-03T03:40:44.413Z,8.90
2023-03-03T03:43:12.848Z,9.15
2023-03-03T03:45:43.572Z,8.88
2023-03-03T03:48:12.058Z,9.32
2023-03-03T03:50:40.408Z,8.02
2023-03-03T03:53:10.166Z,9.13
2023-03-03T03:55:38.501Z,9.50
2023-03-03T03:58:07.046Z,8.73
2023-03-03T04:00:35.386Z,8.85
2023-03-03T04:03:03.784Z,9.05
2023-03-03T04:05:32.115Z,8.57
2023-03-03T04:08:00.421Z,9.50
2023-03-03T04:10:30.114Z,9.43
2023-03-03T04:12:59.205Z,8.70
2023-03-03T04:15:27.580Z,8.45
2023-03-03T04:17:55.919Z,9.05
2023-03-03T04:20:24.337Z,8.50
2023-03-03T04:22:52.634Z,8.40
2023-03-03T04:25:21.495Z,9.35
2023-03-03T04:27:52.108Z,9.73
2023-03-03T04:30:20.577Z,8.95
2023-03-03T04:32:49.650Z,9.00
2023-03-03T04:35:18.153Z,8.45
2023-03-03T04:37:46.466Z,9.35
2023-03-03T04:40:15.004Z,9.75
2023-03-03T04:42:43.439Z,8.60
2023-03-03T04:45:13.905Z,8.77
2023-03-03T04:47:43.053Z,9.55
2023-03-03T04:50:13.480Z,9.00
2023-03-03T04:52:41.764Z,8.10
2023-03-03T04:55:11.851Z,8.10
2023-03-03T04:57:40.157Z,9.70
2023-03-03T05:00:10.461Z,9.82
2023-03-03T05:02:40.284Z,9.95
2023-03-03T05:05:11.276Z,10.10
2023-03-03T05:07:40.432Z,9.43
2023-03-03T05:10:10.559Z,9.57
2023-03-03T05:12:39.036Z,9.77
2023-03-03T05:15:09.015Z,9.73
2023-03-03T05:17:37.354Z,10.45
2023-03-03T05:20:10.309Z,10.45
2023-03-03T05:22:38.630Z,9.23
2023-03-03T05:25:12.156Z,10.50
2023-03-03T05:27:40.692Z,10.98
2023-03-03T05:30:11.388Z,9.45
2023-03-03T05:32:39.983Z,9.50
2023-03-03T05:35:10.974Z,10.77
2023-03-03T05:37:40.559Z,9.98
2023-03-03T05:40:11.115Z,9.90
2023-03-03T05:42:39.468Z,10.02
2023-03-03T05:45:09.282Z,10.02
2023-03-03T05:47:37.700Z,9.20
2023-03-03T05:50:07.037Z,10.65
2023-03-03T05:52:36.650Z,9.43
2023-03-03T05:55:05.136Z,10.85
2023-03-03T05:57:35.913Z,12.50
2023-03-03T06:00:05.537Z,9.85
2023-03-03T06:02:34.774Z,9.95
2023-03-03T06:05:03.051Z,10.57
2023-03-03T06:07:31.339Z,10.32
2023-03-03T06:10:03.687Z,10.85
2023-03-03T06:12:32.230Z,10.27
2023-03-03T06:15:00.510Z,10.95
2023-03-03T06:17:28.814Z,10.63
2023-03-03T06:19:57.082Z,11.40
2023-03-03T06:22:25.398Z,10.27
2023-03-03T06:24:54.898Z,9.52
2023-03-03T06:27:24.506Z,10.90
2023-03-03T06:29:52.961Z,9.35
2023-03-03T06:32:21.340Z,10.57
2023-03-03T06:34:49.658Z,10.38
2023-03-03T06:37:17.957Z,9.27
2023-03-03T06:39:46.311Z,12.40
2023-03-03T06:42:14.598Z,10.38
2023-03-03T06:44:44.259Z,9.68
2023-03-03T06:47:12.548Z,11.02
2023-03-03T06:49:40.812Z,9.57
2023-03-03T06:52:14.961Z,10.43
2023-03-03T06:54:43.518Z,10.63
2023-03-03T06:57:19.272Z,10.23
2023-03-03T06:59:53.732Z,11.20
2023-03-03T07:02:23.518Z,9.75
2023-03-03T07:04:51.788Z,11.63
2023-03-03T07:07:24.630Z,9.85
2023-03-03T07:09:54.919Z,9.48
2023-03-03T07:12:25.367Z,10.73
2023-03-03T07:15:03.111Z,9.25
2023-03-03T07:17:32.505Z,9.18
2023-03-03T07:20:03.006Z,10.05
2023-03-03T07:22:39.146Z,9.05
2023-03-03T07:25:22.532Z,8.65
2023-03-03T07:27:50.819Z,8.50
2023-03-03T07:30:27.467Z,10.07
2023-03-03T07:32:59.178Z,9.77
2023-03-03T07:35:39.274Z,9.45
2023-03-03T07:38:27.651Z,7.65
2023-03-03T07:40:58.733Z,8.20
2023-03-03T07:43:39.062Z,7.93
2023-03-03T07:46:28.525Z,7.88
2023-03-03T07:48:58.925Z,8.05
2023-03-03T07:51:29.727Z,8.63
2023-03-03T07:54:25.305Z,8.10
2023-03-03T07:56:54.056Z,8.48
2023-03-03T07:59:24.614Z,8.88
2023-03-03T08:01:58.240Z,7.10
2023-03-03T08:04:33.917Z,8.93
2023-03-03T08:07:03.668Z,8.18
2023-03-03T08:09:48.313Z,8.63
2023-03-03T08:12:42.465Z,7.80
2023-03-03T08:15:24.789Z,7.75
2023-03-03T08:17:56.966Z,7.28
2023-03-03T08:20:45.789Z,8.00
2023-03-03T08:23:15.459Z,8.13
2023-03-03T08:25:44.683Z,8.63
2023-03-03T08:28:14.075Z,7.65
2023-03-03T08:30:43.736Z,7.25
2023-03-03T08:33:14.185Z,8.25
2023-03-03T08:35:43.110Z,7.90
2023-03-03T08:38:13.043Z,7.30
2023-03-03T08:40:42.473Z,7.72
2023-03-03T08:43:14.543Z,7.15
2023-03-03T08:45:42.912Z,7.05
2023-03-03T08:48:12.639Z,7.25
2023-03-03T08:50:41.538Z,6.40
2023-03-03T08:53:10.732Z,7.57
2023-03-03T08:55:39.233Z,6.82
2023-03-03T08:58:08.006Z,10.00
2023-03-03T09:00:36.850Z,7.32
2023-03-03T09:03:07.146Z,11.07
2023-03-03T09:05:39.171Z,7.05
2023-03-03T09:08:10.792Z,7.35
2023-03-03T09:10:39.383Z,6.95
2023-03-03T09:13:15.048Z,6.80
2023-03-03T09:15:44.017Z,6.65
2023-03-03T09:18:18.329Z,6.60
2023-03-03T09:20:49.887Z,6.47
2023-03-03T09:23:39.721Z,7.88
2023-03-03T09:26:30.671Z,6.45
2023-03-03T09:29:24.984Z,7.57
2023-03-03T09:31:55.636Z,6.47
2023-03-03T09:34:27.790Z,5.82
2023-03-03T09:37:00.073Z,6.78
2023-03-03T09:39:31.662Z,6.15
2023-03-03T09:42:33.673Z,6.40
2023-03-03T09:45:49.798Z,6.82
2023-03-03T09:48:53.968Z,7.28
2023-03-03T09:51:58.878Z,6.85
2023-03-03T09:55:04.126Z,6.47
2023-03-03T09:57:50.518Z,6.65
2023-03-03T10:00:35.952Z,6.20
2023-03-03T10:03:46.525Z,6.32
2023-03-03T10:06:23.720Z,6.37
2023-03-03T10:09:17.902Z,5.93
2023-03-03T10:11:52.047Z,6.93
2023-03-03T10:15:01.212Z,6.43
2023-03-03T10:17:47.262Z,6.47
2023-03-03T10:20:49.656Z,6.28
2023-03-03T10:23:23.357Z,6.70
2023-03-03T10:26:05.039Z,6.93
2023-03-03T10:29:07.455Z,6.30
2023-03-03T10:31:50.583Z,6.00
2023-03-03T10:34:46.111Z,5.72
2023-03-03T10:37:22.561Z,5.75
2023-03-03T10:40:07.367Z,5.93
2023-03-03T10:43:32.557Z,6.38
2023-03-03T10:46:23.219Z,6.78
2023-03-03T10:49:25.184Z,6.57
2023-03-03T10:52:21.227Z,6.93
2023-03-03T10:55:33.091Z,6.22
2023-03-03T10:58:44.388Z,6.22
2023-03-03T11:01:24.672Z,5.60
2023-03-03T11:04:29.457Z,5.25
2023-03-03T11:07:07.037Z,6.80
2023-03-03T11:10:10.000Z,6.88
2023-03-03T11:12:53.467Z,5.50
2023-03-03T11:15:39.740Z,6.18
2023-03-03T11:18:34.161Z,5.55
2023-03-03T11:21:14.311Z,5.93
2023-03-03T11:24:15.147Z,5.03
2023-03-03T11:27:07.958Z,6.75
2023-03-03T11:29:53.818Z,6.22
2023-03-03T11:32:34.955Z,7.03
2023-03-03T11:35:23.736Z,5.93
2023-03-03T11:38:06.054Z,6.20
2023-03-03T11:40:46.508Z,5.53
2023-03-03T11:43:35.599Z,5.82
2023-03-03T11:46:11.122Z,5.45
2023-03-03T11:48:49.901Z,5.85
2023-03-03T11:51:26.247Z,5.20
2023-03-03T11:54:02.640Z,6.05
2023-03-03T11:56:40.184Z,6.05
2023-03-03T11:59:50.255Z,5.97
2023-03-03T12:02:57.389Z,4.93
2023-03-03T12:05:47.085Z,5.53
2023-03-03T12:08:38.152Z,4.78
2023-03-03T12:11:16.432Z,5.03
2023-03-03T12:13:55.549Z,5.70
2023-03-03T12:16:40.326Z,5.45
2023-03-03T12:19:27.374Z,6.10
2023-03-03T12:22:23.345Z,5.07
2023-03-03T12:25:16.001Z,5.28
2023-03-03T12:27:51.808Z,5.05
2023-03-03T12:30:36.949Z,4.65
2023-03-03T12:33:20.836Z,5.78
2023-03-03T12:36:00.444Z,5.63
2023-03-03T12:38:42.340Z,6.00
2023-03-03T12:41:21.284Z,4.82
2023-03-03T12:43:58.127Z,4.97
2023-03-03T12:46:39.512Z,5.45
2023-03-03T12:49:07.918Z,4.97
2023-03-03T12:51:50.028Z,4.45
2023-03-03T12:54:41.256Z,5.00
2023-03-03T12:57:23.338Z,4.95
2023-03-03T13:00:20.208Z,4.75
2023-03-03T13:03:02.021Z,4.75
2023-03-03T13:05:42.689Z,4.75
2023-03-03T13:08:32.315Z,4.95
2023-03-03T13:11:28.464Z,5.65
2023-03-03T13:14:05.364Z,5.10
2023-03-03T13:16:41.800Z,5.57
2023-03-03T13:19:14.482Z,4.88
2023-03-03T13:21:49.126Z,4.95
2023-03-03T13:24:24.948Z,5.07
2023-03-03T13:26:59.618Z,5.10
2023-03-03T13:29:31.616Z,5.18
2023-03-03T13:32:09.882Z,5.00
2023-03-03T13:34:50.434Z,4.65
2023-03-03T13:37:25.214Z,5.03
2023-03-03T13:40:01.576Z,5.53
2023-03-03T13:42:40.720Z,5.28
2023-03-03T13:45:21.497Z,4.85
2023-03-03T13:47:59.662Z,5.18
2023-03-03T13:50:36.167Z,5.10
2023-03-03T13:53:28.301Z,5.88
2023-03-03T13:56:07.342Z,5.00
2023-03-03T13:58:46.716Z,5.57
2023-03-03T14:01:23.790Z,5.13
2023-03-03T14:04:01.607Z,4.90
2023-03-03T14:06:31.373Z,5.20
2023-03-03T14:09:22.030Z,4.63
2023-03-03T14:11:57.673Z,5.50
2023-03-03T14:14:45.475Z,5.53
2023-03-03T14:17:26.026Z,5.50
2023-03-03T14:20:11.907Z,5.40
2023-03-03T14:22:48.317Z,4.43
2023-03-03T14:25:17.718Z,5.20
2023-03-03T14:28:06.510Z,4.97
2023-03-03T14:30:40.424Z,4.75
2023-03-03T14:33:23.998Z,4.53
2023-03-03T14:36:04.522Z,5.07
2023-03-03T14:38:47.199Z,5.15
2023-03-03T14:41:22.976Z,5.38
2023-03-03T14:44:02.337Z,5.20
2023-03-03T14:46:39.657Z,4.50
2023-03-03T14:49:16.609Z,4.95
2023-03-03T14:51:47.716Z,5.03
2023-03-03T14:57:05.006Z,4.97
2023-03-03T14:59:33.886Z,5.07
2023-03-03T15:02:36.474Z,5.10
2023-03-03T15:05:22.097Z,4.40
2023-03-03T15:07:54.636Z,4.95
2023-03-03T15:10:35.759Z,4.30
2023-03-03T15:13:36.127Z,4.65
2023-03-03T15:16:12.443Z,5.18
2023-03-03T15:19:34.779Z,5.75
2023-03-03T15:22:11.394Z,4.30
2023-03-03T15:24:47.429Z,4.90
2023-03-03T15:27:23.526Z,4.82
2023-03-03T15:30:06.695Z,5.70
2023-03-03T15:32:44.716Z,5.53
2023-03-03T15:35:33.058Z,5.22
2023-03-03T15:38:06.039Z,5.82
2023-03-03T15:40:41.447Z,5.70
2023-03-03T15:43:23.878Z,5.53
2023-03-03T15:46:03.976Z,5.35
2023-03-03T15:48:57.249Z,5.65
2023-03-03T15:52:00.976Z,5.45
2023-03-03T15:54:42.781Z,5.43
2023-03-03T15:57:18.814Z,4.95
2023-03-03T16:00:10.601Z,4.53
2023-03-03T16:02:50.769Z,5.13
2023-03-03T16:05:25.984Z,5.53
2023-03-03T16:08:04.741Z,5.38
2023-03-03T16:10:46.446Z,4.97
2023-03-03T16:13:41.390Z,5.90
2023-03-03T16:16:35.234Z,4.85
2023-03-03T16:19:18.374Z,6.07
2023-03-03T16:22:16.111Z,5.03
2023-03-03T16:25:01.456Z,4.72
2023-03-03T16:27:37.626Z,4.88
2023-03-03T16:30:33.096Z,5.30
2023-03-03T16:33:23.653Z,5.07
2023-03-03T16:36:05.154Z,4.07
2023-03-03T16:38:38.450Z,5.25
2023-03-03T16:41:14.852Z,8.15
2023-03-03T16:43:56.431Z,5.03
2023-03-03T16:46:33.099Z,5.45
2023-03-03T16:49:10.257Z,4.60
2023-03-03T16:51:50.575Z,4.78
2023-03-03T16:54:31.475Z,6.33
2023-03-03T16:57:12.848Z,5.07
2023-03-03T16:59:55.662Z,9.82
2023-03-03T17:02:59.859Z,6.22
2023-03-03T17:05:41.215Z,6.03
2023-03-03T17:08:27.932Z,5.22
2023-03-03T17:11:03.856Z,5.97
2023-03-03T17:14:08.117Z,4.80
2023-03-03T17:16:52.643Z,5.25
2023-03-03T17:19:41.705Z,4.07
2023-03-03T17:22:19.696Z,5.18
2023-03-03T17:25:05.141Z,4.85
2023-03-03T17:27:54.257Z,5.10
2023-03-03T17:30:31.575Z,4.65
2023-03-03T17:33:24.831Z,5.30
2023-03-03T17:36:09.597Z,5.57
2023-03-03T17:38:58.048Z,5.07
2023-03-03T17:41:33.096Z,4.78
2023-03-03T17:44:09.526Z,4.35
2023-03-03T17:46:45.576Z,4.32
2023-03-03T17:49:42.144Z,4.07
2023-03-03T17:52:47.556Z,5.57
2023-03-03T17:55:39.488Z,4.38
2023-03-03T17:58:35.628Z,4.85
2023-03-03T18:01:17.893Z,4.40
2023-03-03T18:04:20.746Z,4.60
2023-03-03T18:07:36.198Z,4.13
2023-03-03T18:10:35.678Z,3.83
2023-03-03T18:13:21.613Z,4.88
2023-03-03T18:16:11.900Z,3.92
2023-03-03T18:19:17.967Z,5.35
2023-03-03T18:21:56.282Z,4.88
2023-03-03T18:24:38.847Z,5.38
2023-03-03T18:27:37.242Z,5.40
2023-03-03T18:30:29.672Z,5.30
2023-03-03T18:33:09.976Z,5.18
2023-03-03T18:35:41.599Z,5.50
2023-03-03T18:38:46.351Z,5.10
2023-03-03T18:41:23.646Z,5.25
2023-03-03T18:43:59.405Z,4.95
2023-03-03T18:46:51.657Z,5.35
2023-03-03T18:49:52.535Z,6.40
2023-03-03T18:52:27.132Z,5.60
2023-03-03T18:55:26.338Z,5.30
2023-03-03T18:58:37.030Z,5.28
2023-03-03T19:01:37.315Z,4.50
2023-03-03T19:04:25.374Z,4.63
2023-03-03T19:07:29.736Z,5.53
2023-03-03T19:10:01.807Z,5.53
2023-03-03T19:12:52.877Z,5.65
2023-03-03T19:15:48.341Z,5.40
2023-03-03T19:18:21.992Z,5.53
2023-03-03T19:20:57.149Z,4.72
2023-03-03T19:23:48.977Z,5.35
2023-03-03T19:26:45.843Z,5.10
2023-03-03T19:29:46.369Z,5.10
2023-03-03T19:32:44.877Z,5.93
2023-03-03T19:35:29.924Z,4.68
2023-03-03T19:38:12.603Z,5.00
2023-03-03T19:40:53.904Z,5.45
2023-03-03T19:43:36.664Z,5.65
2023-03-03T19:46:24.905Z,5.20
2023-03-03T19:49:02.604Z,5.43
2023-03-03T19:51:38.194Z,6.03
2023-03-03T19:54:22.386Z,5.95
2023-03-03T19:56:54.829Z,5.82
2023-03-03T19:59:35.063Z,6.05
2023-03-03T20:02:39.554Z,5.72
2023-03-03T20:05:22.108Z,6.00
2023-03-03T20:07:58.594Z,6.30
2023-03-03T20:10:46.225Z,6.35
2023-03-03T20:13:46.803Z,5.60
2023-03-03T20:16:27.718Z,5.68
2023-03-03T20:19:20.385Z,6.18
2023-03-03T20:22:03.353Z,5.68
2023-03-03T20:24:47.013Z,5.97
2023-03-03T20:27:19.878Z,6.00
2023-03-03T20:30:18.216Z,5.72
2023-03-03T20:33:07.331Z,6.07
2023-03-03T20:35:49.355Z,7.15
2023-03-03T20:38:29.637Z,6.80
2023-03-03T20:41:07.481Z,5.40
2023-03-03T20:44:00.426Z,5.85
2023-03-03T20:46:40.959Z,5.57
2023-03-03T20:49:31.817Z,5.75
2023-03-03T20:52:04.976Z,5.80
2023-03-03T20:54:43.878Z,5.38
2023-03-03T20:57:20.021Z,9.80
2023-03-03T20:59:57.732Z,5.50
2023-03-03T21:02:34.147Z,3.20
2023-03-03T21:05:13.902Z,3.08
2023-03-03T21:07:54.996Z,2.78
2023-03-03T21:10:26.172Z,3.15
2023-03-03T21:15:30.712Z,2.83
2023-03-03T21:18:01.003Z,2.88
2023-03-03T21:20:32.909Z,3.05
2023-03-03T21:23:02.847Z,2.78
2023-03-03T21:25:52.134Z,2.85
2023-03-03T21:28:24.971Z,2.80
2023-03-03T21:31:11.852Z,3.38
2023-03-03T21:33:54.082Z,4.07
2023-03-03T21:36:25.303Z,2.97
2023-03-03T21:38:55.187Z,3.33
2023-03-03T21:41:23.737Z,2.95
2023-03-03T21:43:54.185Z,3.05
2023-03-03T21:46:24.466Z,3.20
2023-03-03T21:48:54.348Z,3.13
2023-03-03T21:51:24.431Z,3.08
2023-03-03T21:53:52.736Z,3.38
2023-03-03T21:56:21.065Z,3.03
2023-03-03T21:58:49.386Z,2.97
2023-03-03T22:01:17.699Z,3.10
2023-03-03T22:03:46.148Z,3.28
2023-03-03T22:06:15.818Z,3.10
2023-03-03T22:08:44.075Z,3.00
2023-03-03T22:11:14.158Z,3.25
2023-03-03T22:16:12.527Z,3.25
2023-03-03T22:18:40.994Z,3.22
2023-03-03T22:21:09.271Z,3.30
2023-03-03T22:23:39.080Z,3.50
2023-03-03T22:26:07.902Z,3.17
2023-03-03T22:28:36.238Z,3.28
2023-03-03T22:31:04.739Z,2.97
2023-03-03T22:33:33.065Z,3.05
2023-03-03T22:36:01.368Z,2.80
2023-03-03T22:38:29.657Z,3.60
2023-03-03T22:40:59.583Z,2.83
2023-03-03T22:43:29.966Z,2.90
2023-03-03T22:45:58.587Z,3.05
2023-03-03T22:48:28.913Z,3.45
2023-03-03T22:50:57.255Z,3.40
2023-03-03T22:53:27.078Z,3.13
2023-03-03T22:55:55.522Z,3.25
2023-03-03T22:58:26.231Z,3.20
2023-03-03T23:00:55.111Z,3.42
2023-03-03T23:03:23.514Z,3.05
2023-03-03T23:05:52.208Z,3.30
2023-03-03T23:08:22.057Z,3.03
2023-03-03T23:10:50.623Z,3.55
2023-03-03T23:13:18.918Z,2.90
2023-03-03T23:15:48.629Z,3.30
2023-03-03T23:18:16.978Z,2.90
2023-03-03T23:20:46.169Z,2.88
2023-03-03T23:23:14.510Z,2.97
2023-03-03T23:25:43.038Z,2.75
2023-03-03T23:28:11.453Z,2.97
2023-03-03T23:30:39.734Z,2.95
2023-03-03T23:33:09.584Z,3.22
2023-03-03T23:35:37.980Z,2.95
2023-03-03T23:38:06.454Z,3.17
2023-03-03T23:40:34.724Z,3.08
2023-03-03T23:43:03.031Z,3.50
2023-03-03T23:45:31.346Z,2.90
2023-03-03T23:47:59.674Z,3.15
2023-03-03T23:50:29.586Z,2.92
2023-03-03T23:52:57.882Z,2.80
2023-03-03T23:55:26.141Z,3.05
2023-03-03T23:57:54.437Z,3.45
